Time;durP1;ratioP1;P1;durP2;ratioP2;P2;SDS_P1;SDS_P2;PMS_P1;PMS_P2;Temp;Humidity;BMP_temperature;BMP_pressure;BME280_temperature;BME280_humidity;BME280_pressure;Samples;Min_cycle;Max_cycle;Signal;HPM_P1;HPM_P2
2022/04/11 00:00:55;;;;;;;7.13;4.20;;;3.00;99.90;;;;;;4993588;28;20239;-84
2022/04/11 00:03:22;;;;;;;5.77;3.80;;;3.00;99.90;;;;;;4995084;28;20309;-85
2022/04/11 00:05:51;;;;;;;6.70;3.70;;;3.00;99.90;;;;;;4991616;28;20719;-86
2022/04/11 00:08:20;;;;;;;5.97;3.40;;;3.00;99.90;;;;;;4995808;28;20207;-83
2022/04/11 00:10:47;;;;;;;7.37;4.53;;;3.00;99.90;;;;;;4987893;28;20211;-86
2022/04/11 00:13:14;;;;;;;5.77;3.50;;;3.10;99.90;;;;;;4992046;28;20216;-87
2022/04/11 00:15:41;;;;;;;6.53;3.57;;;3.00;99.90;;;;;;4984790;28;20238;-84
2022/04/11 00:18:09;;;;;;;8.67;4.40;;;3.10;99.90;;;;;;5005043;28;20277;-83
2022/04/11 00:20:36;;;;;;;6.50;4.03;;;3.10;99.90;;;;;;4987270;28;20219;-84
2022/04/11 00:23:05;;;;;;;7.07;4.00;;;3.10;99.90;;;;;;4987759;28;20248;-85
2022/04/11 00:25:33;;;;;;;6.63;3.93;;;3.10;99.90;;;;;;4987287;28;21626;-84
2022/04/11 00:28:00;;;;;;;8.80;4.07;;;3.10;99.90;;;;;;5003567;28;20228;-86
2022/04/11 00:30:27;;;;;;;7.67;4.23;;;3.10;99.90;;;;;;4989979;28;20195;-84
2022/04/11 00:32:54;;;;;;;9.40;3.80;;;3.10;99.90;;;;;;4998059;28;20222;-84
2022/04/11 00:35:21;;;;;;;11.80;4.03;;;3.20;99.90;;;;;;4990087;28;20339;-86
2022/04/11 00:37:48;;;;;;;6.37;3.77;;;3.10;99.90;;;;;;4994730;28;20231;-84
2022/04/11 00:40:17;;;;;;;7.77;3.73;;;3.10;99.90;;;;;;5006890;28;20214;-84
2022/04/11 00:42:44;;;;;;;5.70;3.70;;;3.10;99.90;;;;;;4987889;28;20211;-85
2022/04/11 00:45:11;;;;;;;8.47;4.50;;;3.10;99.90;;;;;;4997747;28;20199;-83
2022/04/11 00:47:38;;;;;;;12.37;3.87;;;3.20;99.90;;;;;;4989553;28;20211;-83
2022/04/11 00:50:08;;;;;;;9.57;4.50;;;3.10;99.90;;;;;;4989247;28;20207;-84
2022/04/11 00:52:38;;;;;;;6.97;4.33;;;3.20;99.90;;;;;;4996731;28;20214;-84
2022/04/11 00:55:07;;;;;;;6.13;4.03;;;3.20;99.90;;;;;;5003021;28;20241;-83
2022/04/11 00:57:36;;;;;;;8.17;4.10;;;3.20;99.90;;;;;;4986027;28;20267;-84
2022/04/11 01:00:06;;;;;;;8.50;4.53;;;3.30;99.90;;;;;;4998516;28;20219;-86
2022/04/11 01:02:35;;;;;;;6.83;3.77;;;3.30;99.90;;;;;;4988750;28;20224;-86
2022/04/11 01:05:02;;;;;;;8.33;4.13;;;3.30;99.90;;;;;;4990222;28;20208;-86
2022/04/11 01:07:29;;;;;;;10.23;4.20;;;3.70;99.90;;;;;;4990569;28;20658;-84
2022/04/11 01:09:57;;;;;;;9.57;4.07;;;3.30;99.90;;;;;;4990918;28;20214;-84
2022/04/11 01:12:24;;;;;;;6.77;4.10;;;3.30;99.90;;;;;;5001083;28;20708;-86
2022/04/11 01:14:53;;;;;;;8.60;4.10;;;3.30;99.90;;;;;;4999088;28;20236;-85
2022/04/11 01:17:21;;;;;;;5.40;3.70;;;2.50;99.90;;;;;;4997170;28;20241;-84
2022/04/11 01:19:48;;;;;;;12.40;4.63;;;3.30;99.90;;;;;;4997407;28;20238;-85
2022/04/11 01:22:16;;;;;;;8.97;3.80;;;3.30;99.90;;;;;;4996530;28;20188;-84
2022/04/11 01:24:44;;;;;;;6.33;3.60;;;3.40;99.90;;;;;;5008904;28;20215;-84
2022/04/11 01:27:11;;;;;;;9.03;3.80;;;3.50;99.90;;;;;;4988157;28;20227;-84
2022/04/11 01:29:38;;;;;;;8.17;4.10;;;3.50;99.90;;;;;;4980801;28;20243;-86
2022/04/11 01:32:07;;;;;;;7.03;3.50;;;3.50;99.90;;;;;;4996752;28;20216;-84
2022/04/11 01:34:34;;;;;;;8.13;3.27;;;3.60;99.90;;;;;;4988717;28;20224;-85
2022/04/11 01:37:01;;;;;;;7.37;3.63;;;3.60;99.90;;;;;;4991222;28;20283;-85
2022/04/11 01:39:30;;;;;;;7.83;3.30;;;3.60;99.90;;;;;;5005475;28;20213;-86
2022/04/11 01:41:57;;;;;;;6.60;3.40;;;3.70;99.90;;;;;;5000992;28;20212;-83
2022/04/11 01:44:24;;;;;;;6.60;3.60;;;3.70;99.90;;;;;;4997374;28;20220;-83
2022/04/11 01:46:52;;;;;;;4.90;3.00;;;3.80;99.90;;;;;;5008353;28;20258;-84
2022/04/11 01:49:19;;;;;;;5.77;2.70;;;3.80;99.90;;;;;;5014204;28;20216;-83
2022/04/11 01:51:47;;;;;;;6.43;3.47;;;4.40;99.90;;;;;;5006834;28;20266;-84
2022/04/11 01:54:14;;;;;;;5.70;3.03;;;3.90;99.90;;;;;;5015008;28;20203;-84
2022/04/11 01:56:43;;;;;;;6.83;2.97;;;4.00;99.90;;;;;;5018883;28;20265;-85
2022/04/11 01:59:12;;;;;;;3.87;2.70;;;4.00;99.90;;;;;;5005291;28;20294;-85
2022/04/11 02:01:40;;;;;;;5.13;2.83;;;4.10;99.90;;;;;;5006419;28;20220;-84
2022/04/11 02:04:07;;;;;;;7.37;3.30;;;4.20;99.90;;;;;;5006087;28;20243;-85
2022/04/11 02:06:35;;;;;;;4.10;2.83;;;4.20;99.90;;;;;;5002125;28;20230;-83
2022/04/11 02:09:04;;;;;;;7.40;3.00;;;4.30;99.90;;;;;;5007440;28;20195;-84
2022/04/11 02:11:32;;;;;;;6.30;2.93;;;;;;;;;;5016642;28;20315;-85
2022/04/11 02:14:00;;;;;;;4.00;2.70;;;4.40;99.90;;;;;;5013959;28;20214;-85
2022/04/11 02:16:28;;;;;;;4.07;3.00;;;4.40;99.90;;;;;;5001785;28;20267;-88
2022/04/11 02:18:54;;;;;;;4.43;2.90;;;4.60;99.90;;;;;;5003972;28;20228;-86
2022/04/11 02:21:21;;;;;;;7.43;2.93;;;4.50;99.90;;;;;;5011533;28;20208;-84
2022/04/11 02:23:48;;;;;;;4.20;2.50;;;4.50;99.90;;;;;;5008623;28;20268;-84
2022/04/11 02:26:16;;;;;;;3.70;2.67;;;4.50;99.90;;;;;;5009672;28;20234;-83
2022/04/11 02:28:43;;;;;;;6.37;3.10;;;4.50;99.90;;;;;;4989240;28;20221;-83
2022/04/11 02:31:11;;;;;;;4.73;3.00;;;4.60;99.90;;;;;;4992318;28;20659;-85
2022/04/11 02:33:38;;;;;;;8.17;3.33;;;4.60;99.90;;;;;;5002599;28;20210;-86
2022/04/11 02:36:06;;;;;;;4.60;2.90;;;4.60;99.90;;;;;;4995587;28;20238;-84
2022/04/11 02:38:33;;;;;;;5.20;2.70;;;4.60;99.90;;;;;;4993730;28;21687;-86
2022/04/11 02:41:01;;;;;;;4.70;2.50;;;4.60;99.90;;;;;;4992485;28;20289;-85
2022/04/11 02:43:46;;;;;;;3.90;2.50;;;4.70;99.90;;;;;;4995863;28;20219;-84
2022/04/11 02:46:15;;;;;;;6.77;2.90;;;4.60;99.90;;;;;;5011089;28;20308;-84
2022/04/11 02:48:42;;;;;;;4.07;2.83;;;4.70;99.90;;;;;;5001943;28;20232;-82
2022/04/11 02:51:25;;;;;;;5.33;3.20;;;4.60;99.90;;;;;;4990462;28;20272;-86
2022/04/11 02:54:07;;;;;;;4.23;2.97;;;4.60;99.90;;;;;;4999716;28;20225;-85
2022/04/11 02:56:35;;;;;;;8.03;3.30;;;4.60;99.90;;;;;;4991412;28;20229;-86
2022/04/11 02:59:03;;;;;;;6.47;3.30;;;4.60;99.90;;;;;;4993012;28;20471;-84
2022/04/11 03:01:33;;;;;;;5.80;3.13;;;4.60;99.90;;;;;;4983576;28;20640;-85
2022/04/11 03:04:00;;;;;;;6.77;3.53;;;4.50;99.90;;;;;;5006639;28;20249;-84
2022/04/11 03:06:41;;;;;;;4.67;3.23;;;4.50;99.90;;;;;;4983901;28;20225;-85
2022/04/11 03:09:09;;;;;;;7.07;4.00;;;4.50;99.90;;;;;;5005291;28;20555;-85
2022/04/11 03:11:38;;;;;;;6.23;3.67;;;4.50;99.90;;;;;;5000581;28;20222;-85
2022/04/11 03:14:06;;;;;;;7.87;3.67;;;4.40;99.90;;;;;;4992532;28;20238;-85
2022/04/11 03:16:37;;;;;;;7.37;3.60;;;4.40;99.90;;;;;;5002462;28;21117;-84
2022/04/11 03:19:04;;;;;;;6.33;3.60;;;4.30;99.90;;;;;;5001349;28;20273;-85
2022/04/11 03:21:31;;;;;;;6.93;3.37;;;4.30;99.90;;;;;;5009263;28;20258;-85
2022/04/11 03:24:07;;;;;;;5.33;2.83;;;4.20;99.90;;;;;;4989486;28;20209;-83
2022/04/11 03:26:34;;;;;;;6.57;3.30;;;4.30;99.90;;;;;;4988988;28;20263;-83
2022/04/11 03:29:03;;;;;;;6.03;3.50;;;4.20;99.90;;;;;;4998285;28;21003;-84
2022/04/11 03:31:30;;;;;;;6.17;3.13;;;5.70;99.90;;;;;;4990557;28;20594;-83
2022/04/11 03:33:59;;;;;;;8.17;3.53;;;4.20;99.90;;;;;;4988570;28;20706;-83
2022/04/11 03:36:26;;;;;;;5.37;3.33;;;4.10;99.90;;;;;;4999556;28;20237;-83
2022/04/11 03:38:54;;;;;;;5.90;3.27;;;4.00;99.90;;;;;;5005879;28;20212;-85
2022/04/11 03:41:25;;;;;;;7.33;3.50;;;4.00;99.90;;;;;;4991874;28;20216;-84
2022/04/11 03:43:56;;;;;;;4.50;3.23;;;4.00;99.90;;;;;;4991926;28;20247;-84
2022/04/11 03:46:24;;;;;;;6.67;3.57;;;3.90;99.90;;;;;;4998384;28;20233;-85
2022/04/11 03:48:51;;;;;;;5.43;3.30;;;3.90;99.90;;;;;;4991309;28;20265;-85
2022/04/11 03:51:20;;;;;;;7.03;3.60;;;3.90;99.90;;;;;;4999223;28;20241;-83
2022/04/11 03:53:48;;;;;;;11.40;5.20;;;3.80;99.90;;;;;;4996210;28;20353;-85
2022/04/11 03:56:17;;;;;;;8.33;4.97;;;3.80;99.90;;;;;;4987483;28;20229;-85
2022/04/11 03:58:44;;;;;;;8.93;4.13;;;3.70;99.90;;;;;;4987625;28;20215;-85
2022/04/11 04:01:11;;;;;;;4.93;3.03;;;3.70;99.90;;;;;;4991051;28;20212;-84
2022/04/11 04:03:40;;;;;;;6.20;3.57;;;3.60;99.90;;;;;;5007163;28;20192;-85
2022/04/11 04:06:11;;;;;;;6.23;2.73;;;3.60;99.90;;;;;;5002166;28;20227;-85
2022/04/11 04:08:43;;;;;;;6.30;3.73;;;3.50;99.90;;;;;;4999055;28;20897;-85
2022/04/11 04:11:16;;;;;;;6.73;3.43;;;3.50;99.90;;;;;;5002013;28;20246;-85
2022/04/11 04:14:03;;;;;;;7.43;3.10;;;3.50;99.90;;;;;;4950274;28;20218;-85
2022/04/11 04:16:34;;;;;;;6.50;3.47;;;3.40;99.90;;;;;;5002618;28;20245;-85
2022/04/11 04:19:05;;;;;;;6.27;3.40;;;3.40;99.90;;;;;;5003200;28;20230;-85
2022/04/11 04:21:33;;;;;;;6.40;3.17;;;3.40;99.90;;;;;;4996619;28;20298;-84
2022/04/11 04:24:03;;;;;;;8.50;3.97;;;3.30;99.90;;;;;;4997603;28;20217;-85
2022/04/11 04:26:32;;;;;;;10.93;3.53;;;3.30;99.90;;;;;;4989111;28;20254;-85
2022/04/11 04:29:00;;;;;;;5.43;3.47;;;3.20;99.90;;;;;;5005020;28;20207;-84
2022/04/11 04:31:30;;;;;;;9.20;3.50;;;3.20;99.90;;;;;;5004259;28;20217;-84
2022/04/11 04:33:57;;;;;;;8.80;3.23;;;3.10;99.90;;;;;;4988865;28;20221;-85
2022/04/11 04:36:24;;;;;;;6.77;3.33;;;3.00;99.90;;;;;;4989922;28;20652;-85
2022/04/11 04:38:52;;;;;;;6.83;3.80;;;3.10;99.90;;;;;;4988743;28;20226;-83
2022/04/11 04:41:21;;;;;;;4.57;3.50;;;3.40;99.90;;;;;;4997953;28;20215;-85
2022/04/11 04:43:49;;;;;;;6.07;3.10;;;3.00;99.90;;;;;;4994738;28;20350;-85
2022/04/11 04:46:18;;;;;;;9.93;4.80;;;3.00;99.90;;;;;;4990267;28;20713;-84
2022/04/11 04:48:49;;;;;;;4.63;3.33;;;3.00;99.90;;;;;;4992116;28;20584;-83
2022/04/11 04:51:20;;;;;;;5.87;3.50;;;2.90;99.90;;;;;;4995410;28;20293;-82
2022/04/11 04:53:58;;;;;;;6.90;3.47;;;2.90;99.90;;;;;;4997462;28;20219;-82
2022/04/11 04:56:29;;;;;;;6.17;3.40;;;2.90;99.90;;;;;;5004564;28;20251;-83
2022/04/11 04:58:57;;;;;;;6.90;3.47;;;2.90;99.90;;;;;;5003584;28;20200;-84
2022/04/11 05:01:24;;;;;;;5.80;3.57;;;2.80;99.90;;;;;;5018498;28;20219;-83
2022/04/11 05:03:52;;;;;;;9.33;3.43;;;2.80;99.90;;;;;;5019001;28;20528;-83
2022/04/11 05:06:23;;;;;;;10.30;3.80;;;2.80;99.90;;;;;;5019246;28;20243;-83
2022/04/11 05:08:50;;;;;;;10.73;4.23;;;2.80;99.90;;;;;;4996617;28;20264;-83
2022/04/11 05:11:16;;;;;;;13.20;3.80;;;2.70;99.90;;;;;;5004080;28;20243;-84
2022/04/11 05:13:46;;;;;;;7.17;3.93;;;2.40;99.90;;;;;;5002295;28;20212;-85
2022/04/11 05:16:15;;;;;;;8.30;4.33;;;2.70;99.90;;;;;;5002175;28;20232;-85
2022/04/11 05:18:42;;;;;;;8.53;4.33;;;2.60;99.90;;;;;;5002067;28;20215;-85
2022/04/11 05:21:09;;;;;;;7.33;4.00;;;2.70;99.90;;;;;;5002223;28;20214;-85
2022/04/11 05:23:36;;;;;;;6.60;3.77;;;2.70;99.90;;;;;;5000344;28;20250;-85
2022/04/11 05:26:05;;;;;;;11.23;3.83;;;2.80;99.90;;;;;;5016885;28;20253;-85
2022/04/11 05:28:34;;;;;;;7.03;3.67;;;2.80;99.90;;;;;;5000732;28;20207;-86
2022/04/11 05:31:05;;;;;;;8.67;3.70;;;2.90;99.90;;;;;;5003564;28;20212;-83
2022/04/11 05:33:36;;;;;;;8.53;4.10;;;3.00;99.90;;;;;;5020965;28;20273;-84
2022/04/11 05:36:07;;;;;;;6.17;3.90;;;3.10;99.90;;;;;;5000691;28;20246;-85
2022/04/11 05:38:34;;;;;;;7.00;3.90;;;3.30;99.90;;;;;;5014863;28;20288;-81
2022/04/11 05:41:01;;;;;;;8.13;3.70;;;3.60;99.90;;;;;;5002917;28;20212;-82
2022/04/11 05:43:35;;;;;;;4.67;3.10;;;4.50;99.90;;;;;;5015999;28;20214;-82
2022/04/11 05:46:05;;;;;;;3.93;2.60;;;5.60;99.90;;;;;;5002161;28;20770;-84
2022/04/11 05:48:34;;;;;;;5.17;2.90;;;6.70;99.90;;;;;;5009429;28;20222;-83
2022/04/11 05:51:02;;;;;;;7.07;2.63;;;7.80;99.90;;;;;;4998899;28;20757;-83
2022/04/11 05:53:29;;;;;;;6.00;2.70;;;9.10;99.90;;;;;;5000279;28;20245;-84
2022/04/11 05:56:00;;;;;;;9.33;2.60;;;10.20;99.90;;;;;;4998705;28;20231;-84
2022/04/11 05:58:27;;;;;;;8.43;3.07;;;11.20;99.90;;;;;;5008867;28;20610;-84
2022/04/11 06:00:54;;;;;;;8.43;2.80;;;12.10;99.90;;;;;;5005126;28;20295;-84
2022/04/11 06:03:26;;;;;;;4.93;2.70;;;13.20;99.90;;;;;;5013409;28;20265;-83
2022/04/11 06:05:53;;;;;;;6.10;2.57;;;14.10;99.90;;;;;;4995760;28;20265;-83
2022/04/11 06:08:20;;;;;;;4.40;2.50;;;14.90;99.90;;;;;;4988069;28;20258;-85
2022/04/11 06:10:47;;;;;;;7.93;2.40;;;16.10;99.90;;;;;;5009612;28;20219;-86
2022/04/11 06:13:19;;;;;;;4.27;2.40;;;16.70;99.90;;;;;;4990467;28;20215;-85
2022/04/11 06:15:48;;;;;;;3.33;2.40;;;17.60;99.90;;;;;;4987461;28;20245;-86
2022/04/11 06:18:15;;;;;;;4.53;2.30;;;18.50;99.90;;;;;;5001798;28;20301;-85
2022/04/11 06:20:46;;;;;;;6.77;2.63;;;19.20;99.90;;;;;;4999268;28;20238;-85
2022/04/11 06:23:18;;;;;;;4.00;2.57;;;20.10;99.90;;;;;;4987012;28;20213;-86
2022/04/11 06:25:45;;;;;;;3.13;2.20;;;20.50;99.90;;;;;;4996110;28;20558;-86
2022/04/11 06:28:12;;;;;;;7.00;2.20;;;21.20;99.90;;;;;;4996025;28;20238;-84
2022/04/11 06:30:40;;;;;;;5.27;2.30;;;21.40;99.90;;;;;;5015665;28;20221;-87
2022/04/11 06:33:07;;;;;;;6.97;2.43;;;21.70;99.90;;;;;;4997968;28;20222;-86
2022/04/11 06:35:34;;;;;;;5.93;2.40;;;21.80;99.90;;;;;;4995562;28;20264;-86
2022/04/11 06:38:04;;;;;;;7.70;2.40;;;21.50;99.90;;;;;;4995040;28;20206;-87
2022/04/11 06:40:33;;;;;;;4.47;2.60;;;21.50;99.90;;;;;;4983036;28;20233;-87
2022/04/11 06:43:01;;;;;;;5.57;2.60;;;21.50;99.90;;;;;;5019347;28;20194;-91
2022/04/11 06:45:51;;;;;;;5.43;2.27;;;21.40;99.90;;;;;;5006765;28;20235;-85
2022/04/11 06:48:21;;;;;;;6.67;2.50;;;21.70;99.90;;;;;;4995489;28;20230;-86
2022/04/11 06:50:50;;;;;;;5.17;2.60;;;22.10;99.90;;;;;;4994651;28;20644;-86
2022/04/11 06:53:18;;;;;;;4.27;2.60;;;22.30;98.60;;;;;;5012258;28;20217;-86
2022/04/11 06:55:48;;;;;;;3.93;2.20;;;22.30;99.90;;;;;;4995050;28;20251;-86
2022/04/11 06:58:15;;;;;;;5.03;2.30;;;22.40;99.90;;;;;;4998237;28;20222;-87
2022/04/11 07:00:43;;;;;;;4.13;2.57;;;22.70;99.00;;;;;;4994741;28;20255;-86
2022/04/11 07:03:11;;;;;;;4.87;2.40;;;22.90;99.10;;;;;;5013896;28;20211;-87
2022/04/11 07:05:39;;;;;;;3.33;2.50;;;23.10;97.20;;;;;;5011493;28;20199;-89
2022/04/11 07:08:08;;;;;;;3.63;2.47;;;23.10;97.60;;;;;;5014046;28;20200;-88
2022/04/11 07:10:40;;;;;;;5.30;2.30;;;23.10;98.40;;;;;;5030795;28;20223;-90
2022/04/11 07:13:08;;;;;;;3.50;2.17;;;23.60;97.70;;;;;;5031470;28;20194;-87
2022/04/11 07:15:35;;;;;;;2.67;2.10;;;23.40;97.70;;;;;;5031784;28;20287;-87
2022/04/11 07:18:27;;;;;;;4.33;2.30;;;23.60;96.50;;;;;;5015828;28;20306;-90
2022/04/11 07:20:54;;;;;;;4.10;2.30;;;24.00;96.90;;;;;;5015003;28;20183;-87
2022/04/11 07:23:21;;;;;;;4.03;2.30;;;24.30;95.70;;;;;;5015070;28;20200;-88
2022/04/11 07:25:50;;;;;;;3.80;2.03;;;23.80;95.80;;;;;;5015218;28;20643;-89
2022/04/11 07:28:20;;;;;;;3.53;1.80;;;23.70;95.40;;;;;;5009976;28;20269;-88
2022/04/11 07:30:47;;;;;;;5.70;2.37;;;23.70;95.10;;;;;;5018003;28;20204;-87
2022/04/11 07:33:14;;;;;;;3.43;2.40;;;23.70;95.20;;;;;;5014992;28;20246;-86
2022/04/11 07:35:41;;;;;;;3.80;2.13;;;24.30;95.60;;;;;;5019393;28;20266;-86
2022/04/11 07:38:16;;;;;;;6.67;2.00;;;24.70;85.10;;;;;;5024014;28;20279;-88
2022/04/11 07:40:44;;;;;;;4.10;2.10;;;24.40;93.00;;;;;;5024931;28;20206;-89
2022/04/11 07:43:12;;;;;;;3.97;2.53;;;24.60;92.40;;;;;;5016236;28;20242;-87
2022/04/11 07:45:57;;;;;;;4.90;2.20;;;24.30;69.90;;;;;;5019594;28;20212;-85
2022/04/11 07:48:24;;;;;;;2.67;1.90;;;24.30;69.70;;;;;;5035083;28;20182;-86
2022/04/11 07:51:13;;;;;;;4.03;1.93;;;24.30;70.70;;;;;;5017057;28;20210;-86
2022/04/11 07:53:40;;;;;;;4.70;2.27;;;24.60;71.40;;;;;;5032238;28;20251;-87
2022/04/11 07:56:07;;;;;;;8.23;2.80;;;24.60;69.60;;;;;;5017138;28;20320;-87
2022/04/11 07:58:35;;;;;;;5.23;2.40;;;24.60;68.00;;;;;;5032931;28;20269;-87
2022/04/11 08:01:02;;;;;;;4.30;1.90;;;24.40;66.30;;;;;;5015868;28;20206;-87
2022/04/11 08:03:31;;;;;;;4.93;2.47;;;24.20;67.40;;;;;;5005625;28;20245;-85
2022/04/11 08:05:59;;;;;;;4.23;2.20;;;24.10;67.90;;;;;;5006292;28;20241;-83
2022/04/11 08:08:26;;;;;;;3.93;2.17;;;24.10;65.10;;;;;;5002068;28;21007;-84
2022/04/11 08:10:53;;;;;;;3.50;2.17;;;24.00;65.20;;;;;;4999540;28;20289;-84
2022/04/11 08:13:20;;;;;;;6.37;2.53;;;23.50;64.20;;;;;;4988706;28;20200;-84
2022/04/11 08:15:49;;;;;;;4.43;2.70;;;22.90;65.70;;;;;;4992468;28;20228;-84
2022/04/11 08:18:16;;;;;;;4.57;2.40;;;22.60;64.30;;;;;;5024206;28;20218;-84
2022/04/11 08:20:43;;;;;;;3.13;2.33;;;22.30;66.00;;;;;;5002614;28;20221;-83
2022/04/11 08:23:11;;;;;;;5.83;2.27;;;22.20;65.80;;;;;;5016386;28;20244;-83
2022/04/11 08:25:38;;;;;;;3.30;2.13;;;22.10;64.90;;;;;;5000498;28;20590;-85
2022/04/11 08:28:05;;;;;;;3.03;1.93;;;21.90;65.80;;;;;;5003788;28;20232;-84
2022/04/11 08:30:33;;;;;;;3.27;2.37;;;21.90;64.70;;;;;;5002012;28;20565;-85
2022/04/11 08:33:01;;;;;;;4.83;2.30;;;21.70;65.90;;;;;;5000255;28;20210;-85
2022/04/11 08:35:29;;;;;;;4.13;2.27;;;21.60;64.50;;;;;;5005774;28;20199;-84
2022/04/11 08:37:56;;;;;;;4.73;2.00;;;21.40;66.30;;;;;;5002248;28;20323;-84
2022/04/11 08:40:23;;;;;;;5.93;2.30;;;21.50;67.30;;;;;;5008712;28;20217;-84
2022/04/11 08:42:52;;;;;;;3.00;2.00;;;21.60;68.60;;;;;;5002722;28;20211;-84
2022/04/11 08:45:22;;;;;;;5.53;2.27;;;21.60;64.00;;;;;;4991658;28;20558;-85
2022/04/11 08:47:53;;;;;;;2.57;1.80;;;21.60;64.60;;;;;;5004184;28;20199;-84
2022/04/11 08:50:22;;;;;;;4.43;2.20;;;21.30;64.70;;;;;;5015802;28;20205;-84
2022/04/11 08:52:50;;;;;;;3.77;2.63;;;20.90;65.10;;;;;;4994273;28;20206;-84
2022/04/11 08:55:17;;;;;;;3.53;2.07;;;20.70;65.10;;;;;;4998661;28;20302;-85
2022/04/11 08:57:44;;;;;;;5.27;2.00;;;20.60;65.70;;;;;;5003687;28;20236;-84
2022/04/11 09:00:13;;;;;;;4.63;2.27;;;20.50;66.30;;;;;;5001383;28;20203;-85
2022/04/11 09:02:42;;;;;;;5.23;2.67;;;20.60;65.90;;;;;;4993476;28;20217;-85
2022/04/11 09:05:10;;;;;;;5.10;2.40;;;20.50;66.50;;;;;;5010308;28;20213;-84
2022/04/11 09:07:57;;;;;;;5.47;2.30;;;20.40;65.90;;;;;;5001743;28;20306;-85
2022/04/11 09:10:26;;;;;;;3.60;2.27;;;20.40;67.20;;;;;;4990294;28;20212;-85
2022/04/11 09:12:55;;;;;;;4.53;2.10;;;20.20;66.30;;;;;;5025259;28;20213;-85
2022/04/11 09:15:25;;;;;;;5.50;2.30;;;20.10;65.20;;;;;;5009346;28;20209;-85
2022/04/11 09:17:55;;;;;;;5.20;2.40;;;19.80;65.90;;;;;;5026770;28;20225;-85
2022/04/11 09:20:23;;;;;;;5.93;2.60;;;19.50;65.90;;;;;;5008032;28;20854;-84
2022/04/11 09:22:50;;;;;;;4.67;2.00;;;19.40;67.30;;;;;;5009328;28;20224;-83
2022/04/11 09:25:21;;;;;;;4.57;2.17;;;19.20;66.50;;;;;;4997694;28;20199;-83
2022/04/11 09:28:04;;;;;;;3.53;2.20;;;19.10;67.70;;;;;;4990544;28;20239;-84
2022/04/11 09:30:32;;;;;;;5.37;2.57;;;19.00;68.10;;;;;;5010462;28;20260;-83
2022/04/11 09:33:03;;;;;;;4.70;2.17;;;19.10;68.40;;;;;;4990041;28;20279;-84
2022/04/11 09:35:32;;;;;;;4.33;2.10;;;18.80;67.00;;;;;;4989423;28;20291;-84
2022/04/11 09:38:07;;;;;;;5.33;2.60;;;19.00;68.00;;;;;;4990733;28;20793;-84
2022/04/11 09:40:40;;;;;;;3.40;2.30;;;18.20;65.30;;;;;;5009584;28;20210;-84
2022/04/11 09:43:07;;;;;;;4.50;2.17;;;17.50;67.20;;;;;;4992582;28;20205;-83
2022/04/11 09:45:43;;;;;;;4.47;2.30;;;16.70;67.40;;;;;;5007553;28;20215;-82
2022/04/11 09:48:11;;;;;;;5.00;2.40;;;16.40;68.50;;;;;;4995443;28;20211;-82
2022/04/11 09:50:38;;;;;;;4.17;2.23;;;16.00;68.50;;;;;;5010268;28;20281;-83
2022/04/11 09:53:12;;;;;;;4.57;2.00;;;15.80;69.00;;;;;;5001591;28;20297;-85
2022/04/11 09:55:42;;;;;;;4.90;2.30;;;15.40;69.00;;;;;;4993568;28;20239;-85
2022/04/11 09:58:10;;;;;;;4.13;2.10;;;15.20;69.60;;;;;;4991264;28;20321;-85
2022/04/11 10:00:38;;;;;;;5.43;2.77;;;15.10;70.10;;;;;;4993668;28;20222;-85
2022/04/11 10:03:07;;;;;;;5.10;2.30;;;15.20;70.30;;;;;;4987793;28;20217;-85
2022/04/11 10:05:35;;;;;;;4.50;2.50;;;15.20;70.90;;;;;;5013040;28;20221;-86
2022/04/11 10:08:05;;;;;;;4.40;2.43;;;15.20;70.00;;;;;;4994890;28;20213;-85
2022/04/11 10:10:34;;;;;;;3.53;2.23;;;15.20;69.90;;;;;;5000033;28;20212;-84
2022/04/11 10:13:03;;;;;;;5.27;2.50;;;15.20;71.50;;;;;;4992953;28;20667;-84
2022/04/11 10:15:30;;;;;;;6.57;2.47;;;15.40;71.00;;;;;;4995393;28;20582;-85
2022/04/11 10:17:58;;;;;;;4.10;2.30;;;15.50;72.10;;;;;;4999385;28;20225;-86
2022/04/11 10:20:27;;;;;;;4.63;2.47;;;15.50;71.20;;;;;;4995202;28;20209;-86
2022/04/11 10:23:08;;;;;;;4.90;2.03;;;15.40;71.10;;;;;;4993528;28;20248;-86
2022/04/11 10:25:44;;;;;;;1.87;1.60;;;15.40;71.70;;;;;;5002327;28;20268;-84
2022/04/11 10:28:17;;;;;;;2.40;1.97;;;15.30;71.50;;;;;;4993132;28;20236;-84
2022/04/11 10:30:45;;;;;;;5.30;2.67;;;15.20;70.60;;;;;;4998833;28;20203;-86
2022/04/11 10:33:12;;;;;;;3.23;2.20;;;15.10;70.40;;;;;;5000636;28;20205;-85
2022/04/11 10:35:43;;;;;;;6.77;2.80;;;15.10;71.70;;;;;;4997872;28;20242;-85
2022/04/11 10:38:12;;;;;;;4.70;2.83;;;15.20;72.10;;;;;;5013844;28;20237;-85
2022/04/11 10:40:48;;;;;;;6.90;2.20;;;15.40;72.00;;;;;;5013042;28;20222;-84
2022/04/11 10:43:18;;;;;;;6.53;2.73;;;15.20;70.90;;;;;;4999156;28;20205;-86
2022/04/11 10:45:56;;;;;;;3.60;2.37;;;15.40;71.50;;;;;;4997870;28;20237;-85
2022/04/11 10:49:00;;;;;;;3.73;2.10;;;15.80;72.60;;;;;;4998596;28;20631;-85
2022/04/11 10:51:27;;;;;;;5.47;2.50;;;15.90;72.20;;;;;;4987806;28;20214;-86
2022/04/11 10:54:16;;;;;;;3.87;1.97;;;16.00;72.40;;;;;;4987006;28;20257;-85
2022/04/11 10:56:53;;;;;;;5.20;2.10;;;16.10;71.20;;;;;;4990618;28;20301;-85
2022/04/11 10:59:30;;;;;;;7.90;2.17;;;16.10;70.10;;;;;;5010034;28;20539;-86
2022/04/11 11:01:59;;;;;;;4.43;2.30;;;16.20;70.10;;;;;;4994323;28;20206;-85
2022/04/11 11:04:32;;;;;;;5.33;2.20;;;16.10;68.10;;;;;;5009947;28;20296;-86
2022/04/11 11:07:25;;;;;;;5.90;2.10;;;16.10;68.80;;;;;;4997772;28;20227;-86
2022/04/11 11:09:59;;;;;;;2.70;1.90;;;16.10;69.60;;;;;;4987173;28;20296;-86
2022/04/11 11:12:27;;;;;;;4.17;1.90;;;16.20;69.70;;;;;;5005958;28;20678;-85
2022/04/11 11:14:56;;;;;;;3.77;2.00;;;16.60;69.60;;;;;;4996015;28;20203;-84
2022/04/11 11:17:57;;;;;;;5.47;2.30;;;16.50;69.80;;;;;;4994739;28;20281;-85
2022/04/11 11:20:24;;;;;;;3.77;2.00;;;16.70;68.40;;;;;;4993863;28;20214;-84
2022/04/11 11:23:13;;;;;;;3.10;2.07;;;16.80;68.60;;;;;;4995219;28;20226;-86
2022/04/11 11:25:41;;;;;;;4.53;2.40;;;17.00;69.50;;;;;;4995662;28;20323;-87
2022/04/11 11:28:12;;;;;;;3.67;1.80;;;17.20;68.30;;;;;;5015020;28;20214;-86
2022/04/11 11:30:43;;;;;;;4.97;2.20;;;17.30;91.40;;;;;;5007492;28;20219;-88
2022/04/11 11:33:13;;;;;;;3.63;2.00;;;17.40;66.50;;;;;;5017073;28;20222;-88
2022/04/11 11:35:58;;;;;;;4.67;2.10;;;17.40;67.30;;;;;;4995381;28;20303;-88
2022/04/11 11:38:27;;;;;;;7.27;2.67;;;17.50;66.70;;;;;;4994077;28;20235;-88
2022/04/11 11:40:56;;;;;;;4.90;2.40;;;17.50;66.90;;;;;;5008915;28;20202;-88
2022/04/11 11:43:24;;;;;;;2.93;2.20;;;17.90;66.90;;;;;;5015931;28;20238;-87
2022/04/11 11:46:00;;;;;;;3.00;2.00;;;18.00;66.30;;;;;;5007796;28;20231;-88
2022/04/11 11:48:28;;;;;;;4.47;2.43;;;18.10;66.60;;;;;;4999050;28;20214;-86
2022/04/11 11:50:57;;;;;;;2.63;2.10;;;18.10;66.60;;;;;;5012156;28;20199;-85
2022/04/11 11:53:25;;;;;;;3.03;1.80;;;18.20;66.70;;;;;;5004611;28;20203;-86
2022/04/11 11:55:54;;;;;;;3.80;2.33;;;18.40;67.50;;;;;;4999819;28;20218;-85
2022/04/11 11:58:21;;;;;;;4.13;2.27;;;18.50;66.70;;;;;;5006093;28;20334;-86
2022/04/11 12:00:49;;;;;;;3.33;2.60;;;18.60;66.90;;;;;;5038296;28;20197;-86
2022/04/11 12:06:06;;;;;;;4.93;2.40;;;18.80;66.90;;;;;;5018649;28;20218;-87
2022/04/11 12:08:33;;;;;;;6.10;2.23;;;18.50;66.60;;;;;;5008779;28;20210;-87
2022/04/11 12:11:01;;;;;;;5.53;1.93;;;18.50;67.10;;;;;;5001001;28;20222;-86
2022/04/11 12:13:32;;;;;;;5.23;2.43;;;18.50;66.30;;;;;;4998753;28;20833;-86
2022/04/11 12:16:10;;;;;;;4.63;2.40;;;18.50;66.20;;;;;;4996892;28;20231;-87
2022/04/11 12:18:50;;;;;;;3.63;2.07;;;18.50;66.90;;;;;;5004996;28;20245;-88
2022/04/11 12:21:18;;;;;;;4.60;2.30;;;18.80;66.50;;;;;;4991523;28;20206;-87
2022/04/11 12:23:47;;;;;;;4.53;2.23;;;;;;;;;;4992662;28;20210;-88
2022/04/11 12:26:15;;;;;;;3.67;2.10;;;;;;;;;;5007593;28;20721;-87
2022/04/11 12:28:42;;;;;;;5.00;2.27;;;;;;;;;;4993312;28;20207;-88
2022/04/11 12:31:13;;;;;;;4.40;2.37;;;;;;;;;;4992177;28;20247;-87
2022/04/11 12:33:42;;;;;;;1.90;1.70;;;18.70;64.20;;;;;;4992803;28;20222;-88
2022/04/11 12:36:16;;;;;;;4.07;2.13;;;;;;;;;;5010121;28;20230;-88
2022/04/11 12:38:49;;;;;;;6.40;2.50;;;18.70;65.50;;;;;;4992890;28;20222;-88
2022/04/11 12:41:36;;;;;;;3.37;2.50;;;18.70;65.50;;;;;;4989991;28;20641;-88
2022/04/11 12:44:12;;;;;;;4.57;2.37;;;18.80;65.50;;;;;;4987338;28;20218;-88
2022/04/11 12:46:42;;;;;;;8.90;2.27;;;19.00;65.30;;;;;;4999390;28;20239;-87
2022/04/11 12:49:12;;;;;;;8.30;2.60;;;20.10;66.60;;;;;;4998364;28;20278;-88
2022/04/11 12:51:40;;;;;;;3.53;2.40;;;19.10;66.10;;;;;;4990126;28;20571;-88
2022/04/11 12:54:12;;;;;;;3.97;2.20;;;19.10;65.30;;;;;;4992622;28;20452;-88
2022/04/11 12:56:45;;;;;;;5.00;2.63;;;19.20;66.30;;;;;;4994677;28;20235;-88
2022/04/11 12:59:27;;;;;;;3.80;2.20;;;19.20;66.60;;;;;;5004029;28;20230;-88
2022/04/11 13:01:56;;;;;;;6.23;1.87;;;19.70;67.10;;;;;;4991285;28;20210;-87
2022/04/11 13:04:24;;;;;;;4.50;2.27;;;19.60;65.30;;;;;;4990586;28;20216;-86
2022/04/11 13:06:53;;;;;;;2.50;1.90;;;19.70;65.60;;;;;;5018036;28;20640;-86
2022/04/11 13:09:21;;;;;;;3.77;2.13;;;20.30;66.70;;;;;;5019092;28;20214;-86